Hillcrest, Florida
Current Conditions -  °F | °C
As of 12:53 PM on Tuesday 27 Jan 2015 (Local Time) from KHWO Reporting Station
Clear Clear  
Wind Chill: 67°   Ceiling: Unl
Heat Index: 67°   Visibility: 10mi
Dew Point: 29°   Wind: 13mph
Humidity: 24%   Direction: 310°NW
Pressure: 30.05"   Gusts: NA
Location:  26.0179°N, 80.2031°W
Report Text: KHWO 271753Z 31011KT 10SM CLR 19/M02 A3005 RMK AO2 SLP174 T01941017 10194 20117 58013
Loading
Personal Weather Stations






























Interactive Weather Map New forecast layout! Learn more

10-Day Weather Forecast

Advertisements
Track Severe Weather on mobile